Whitchurch-Stouffville, Canada
Current Conditions -  °F | °C
As of 2:00 PM on Tuesday 21 Oct 2014 (Local Time) from CYKZ Reporting Station
Overcast Overcast  
Wind Chill: 41°   Ceiling: 1200
Heat Index: 46°   Visibility: 15mi
Dew Point: 43°   Wind: 12mph
Humidity: 87%   Direction: 20°NNE
Pressure: 29.93"   Gusts: 17mph
Location:  43.97°N, 79.25°W
Report Text: CYKZ 211800Z 02010G15KT 15SM OVC012 08/06 A2993 RMK SC8 SLP141
Loading
Personal Weather Stations






























Interactive Weather Map
Tropical Storm Tracking
New forecast layout! Learn more

10-Day Weather Forecast

Advertisements
Track Severe Weather on mobile